createdAt,value
2017-07-03T00:00:13.710Z,16.79
2017-07-03T00:01:13.394Z,16.76
2017-07-03T00:02:13.672Z,16.74
2017-07-03T00:03:13.741Z,16.79
2017-07-03T00:04:13.327Z,16.83
2017-07-03T00:05:13.315Z,16.68
2017-07-03T00:06:13.343Z,16.75
2017-07-03T00:07:13.587Z,16.74
2017-07-03T00:08:13.614Z,16.75
2017-07-03T00:09:13.621Z,16.58
2017-07-03T00:10:13.237Z,16.61
2017-07-03T00:11:13.202Z,16.69
2017-07-03T00:12:13.193Z,16.68
2017-07-03T00:13:13.226Z,16.6
2017-07-03T00:14:13.476Z,16.61
2017-07-03T00:15:13.461Z,16.56
2017-07-03T00:16:13.137Z,16.6
2017-07-03T00:17:12.806Z,16.56
2017-07-03T00:18:13.432Z,16.6
2017-07-03T00:19:13.389Z,16.45
2017-07-03T00:20:13.366Z,16.46
2017-07-03T00:21:13.045Z,16.48
2017-07-03T00:22:13.325Z,16.53
2017-07-03T00:23:13.013Z,16.5
2017-07-03T00:24:13.324Z,16.54
2017-07-03T00:25:13.303Z,16.53
2017-07-03T00:26:13.262Z,16.43
2017-07-03T00:27:13.263Z,16.45
2017-07-03T00:28:12.923Z,16.45
2017-07-03T00:29:13.214Z,16.41
2017-07-03T00:30:13.213Z,16.41
2017-07-03T00:31:13.172Z,16.36
2017-07-03T00:32:13.156Z,16.36
2017-07-03T00:33:13.144Z,16.32
2017-07-03T00:34:12.825Z,16.38
2017-07-03T00:35:13.107Z,16.35
2017-07-03T00:36:12.793Z,16.31
2017-07-03T00:37:12.784Z,16.38
2017-07-03T00:38:12.465Z,16.32
2017-07-03T00:39:12.428Z,16.26
2017-07-03T00:40:13.034Z,16.35
2017-07-03T00:41:13.001Z,16.34
2017-07-03T00:42:12.382Z,16.24
2017-07-03T00:43:12.355Z,16.15
2017-07-03T00:44:12.984Z,16.23
2017-07-03T00:45:12.937Z,16.12
2017-07-03T00:46:12.669Z,16.23
2017-07-03T00:47:12.597Z,16.12
2017-07-03T00:48:12.580Z,16.13
2017-07-03T00:49:12.567Z,16.21
2017-07-03T00:50:12.238Z,16.16
2017-07-03T00:51:12.238Z,16.02
2017-07-03T00:52:12.816Z,16.16
2017-07-03T00:53:12.832Z,16.05
2017-07-03T00:54:12.478Z,16.1
2017-07-03T00:55:12.771Z,16.12
2017-07-03T00:56:12.744Z,16.05
2017-07-03T00:57:12.454Z,16.15
2017-07-03T00:58:12.406Z,16.08
2017-07-03T00:59:12.392Z,16.04
2017-07-03T01:00:12.726Z,16.02
2017-07-03T01:01:12.664Z,16.08
2017-07-03T01:02:12.334Z,16.15
2017-07-03T01:03:12.646Z,16.13
2017-07-03T01:04:12.304Z,16.12
2017-07-03T01:05:12.291Z,16.13
2017-07-03T01:06:11.970Z,16.02
2017-07-03T01:07:12.256Z,16.1
2017-07-03T01:08:12.258Z,16.04
2017-07-03T01:09:12.218Z,16.05
2017-07-03T01:10:12.206Z,16.02
2017-07-03T01:11:12.186Z,16.02
2017-07-03T01:12:12.487Z,16
2017-07-03T01:13:12.164Z,15.92
2017-07-03T01:14:12.138Z,16.04
2017-07-03T01:15:12.147Z,15.97
2017-07-03T01:16:12.106Z,15.98
2017-07-03T01:17:12.393Z,15.94
2017-07-03T01:18:11.769Z,15.89
2017-07-03T01:19:12.091Z,15.95
2017-07-03T01:20:12.349Z,15.85
2017-07-03T01:21:12.325Z,15.83
2017-07-03T01:22:12.309Z,15.79
2017-07-03T01:23:12.293Z,15.77
2017-07-03T01:24:12.289Z,15.77
2017-07-03T01:25:11.946Z,15.77
2017-07-03T01:26:12.250Z,15.71
2017-07-03T01:27:11.655Z,15.69
2017-07-03T01:28:11.905Z,15.61
2017-07-03T01:29:12.179Z,15.58
2017-07-03T01:30:11.863Z,15.43
2017-07-03T01:31:12.147Z,15.58
2017-07-03T01:32:11.820Z,15.52
2017-07-03T01:33:12.117Z,15.54
2017-07-03T01:34:12.100Z,15.47
2017-07-03T01:35:12.078Z,15.54
2017-07-03T01:36:12.062Z,15.57
2017-07-03T01:37:12.050Z,15.57
2017-07-03T01:38:12.042Z,15.49
2017-07-03T01:39:11.690Z,15.32
2017-07-03T01:40:11.679Z,15.32
2017-07-03T01:41:11.969Z,15.35
2017-07-03T01:42:11.660Z,15.27
2017-07-03T01:43:11.937Z,15.28
2017-07-03T01:44:11.661Z,15.21
2017-07-03T01:45:11.614Z,15.22
2017-07-03T01:46:11.576Z,15.21
2017-07-03T01:47:11.866Z,15.03
2017-07-03T01:48:11.845Z,14.95
2017-07-03T01:49:11.836Z,14.88
2017-07-03T01:50:11.813Z,15.06
2017-07-03T01:51:11.790Z,15
2017-07-03T01:52:11.776Z,14.92
2017-07-03T01:53:11.446Z,14.8
2017-07-03T01:54:11.432Z,14.89
2017-07-03T01:55:11.438Z,14.85
2017-07-03T01:56:11.395Z,14.92
2017-07-03T01:57:11.411Z,14.98
2017-07-03T01:58:11.696Z,15.02
2017-07-03T01:59:11.360Z,14.91
2017-07-03T02:00:11.032Z,14.8
2017-07-03T02:01:11.709Z,14.89
2017-07-03T02:02:11.618Z,14.79
2017-07-03T02:03:11.668Z,14.87
2017-07-03T02:04:11.567Z,14.92
2017-07-03T02:05:11.256Z,15
2017-07-03T02:06:11.217Z,14.92
2017-07-03T02:07:11.510Z,14.91
2017-07-03T02:08:11.352Z,14.92
2017-07-03T02:09:11.159Z,14.89
2017-07-03T02:10:11.527Z,14.87
2017-07-03T02:11:11.134Z,14.84
2017-07-03T02:12:11.157Z,14.87
2017-07-03T02:13:11.095Z,14.88
2017-07-03T02:14:11.086Z,14.89
2017-07-03T02:15:11.066Z,14.92
2017-07-03T02:16:11.037Z,14.92
2017-07-03T02:17:11.331Z,15.04
2017-07-03T02:18:11.016Z,15.06
2017-07-03T02:19:11.311Z,15.02
2017-07-03T02:20:11.076Z,15.09
2017-07-03T02:21:11.286Z,14.95
2017-07-03T02:22:11.003Z,14.88
2017-07-03T02:23:11.217Z,14.87
2017-07-03T02:24:11.203Z,14.55
2017-07-03T02:25:11.191Z,14.6
2017-07-03T02:26:10.857Z,14.62
2017-07-03T02:27:10.835Z,14.72
2017-07-03T02:28:11.142Z,14.84
2017-07-03T02:29:10.806Z,14.85
2017-07-03T02:30:11.112Z,14.8
2017-07-03T02:31:10.772Z,14.89
2017-07-03T02:32:10.446Z,14.87
2017-07-03T02:33:11.071Z,14.96
2017-07-03T02:34:10.741Z,14.94
2017-07-03T02:35:11.010Z,14.87
2017-07-03T02:36:11.005Z,14.82
2017-07-03T02:37:10.671Z,14.84
2017-07-03T02:38:10.653Z,14.92
2017-07-03T02:39:10.631Z,14.88
2017-07-03T02:40:10.930Z,14.72
2017-07-03T02:41:10.280Z,14.68
2017-07-03T02:42:10.572Z,14.63
2017-07-03T02:43:10.870Z,14.6
2017-07-03T02:44:10.841Z,14.39
2017-07-03T02:45:10.212Z,14.33
2017-07-03T02:46:10.524Z,14.38
2017-07-03T02:47:10.491Z,14.54
2017-07-03T02:48:10.477Z,14.55
2017-07-03T02:49:10.766Z,14.73
2017-07-03T02:50:10.432Z,14.63
2017-07-03T02:51:10.101Z,14.66
2017-07-03T02:52:10.691Z,14.66
2017-07-03T02:53:10.702Z,14.65
2017-07-03T02:54:10.367Z,14.55
2017-07-03T02:55:10.414Z,14.58
2017-07-03T02:56:10.373Z,14.54
2017-07-03T02:57:10.614Z,14.62
2017-07-03T02:58:10.585Z,14.55
2017-07-03T02:59:09.979Z,14.6
2017-07-03T03:00:10.266Z,14.63
2017-07-03T03:01:10.241Z,14.63
2017-07-03T03:02:10.511Z,14.66
2017-07-03T03:03:09.987Z,14.7
2017-07-03T03:04:10.195Z,14.6
2017-07-03T03:05:10.483Z,14.6
2017-07-03T03:06:10.139Z,14.68
2017-07-03T03:07:10.512Z,14.68
2017-07-03T03:08:10.102Z,14.66
2017-07-03T03:09:10.091Z,14.7
2017-07-03T03:10:10.061Z,14.66
2017-07-03T03:11:10.046Z,14.69
2017-07-03T03:12:10.374Z,14.55
2017-07-03T03:13:10.322Z,14.46
2017-07-03T03:14:10.351Z,14.42
2017-07-03T03:15:10.052Z,14.4
2017-07-03T03:16:09.961Z,14.38
2017-07-03T03:17:10.018Z,14.54
2017-07-03T03:18:10.143Z,14.47
2017-07-03T03:19:09.907Z,14.42
2017-07-03T03:20:10.232Z,14.51
2017-07-03T03:21:10.185Z,14.53
2017-07-03T03:22:09.538Z,14.46
2017-07-03T03:23:09.576Z,14.53
2017-07-03T03:24:09.813Z,14.44
2017-07-03T03:25:09.843Z,14.39
2017-07-03T03:26:10.104Z,14.38
2017-07-03T03:27:09.793Z,14.21
2017-07-03T03:28:10.104Z,14.13
2017-07-03T03:29:09.802Z,14.15
2017-07-03T03:30:10.094Z,14.18
2017-07-03T03:31:09.388Z,14.25
2017-07-03T03:32:10.000Z,14.26
2017-07-03T03:33:09.394Z,14.38
2017-07-03T03:34:09.964Z,14.29
2017-07-03T03:35:09.625Z,14.13
2017-07-03T03:36:10.040Z,14.18
2017-07-03T03:37:09.632Z,14.25
2017-07-03T03:38:09.865Z,14.18
2017-07-03T03:39:09.565Z,14.1
2017-07-03T03:40:09.894Z,14.13
2017-07-03T03:41:09.502Z,14.15
2017-07-03T03:42:09.895Z,14.2
2017-07-03T03:43:09.784Z,14.17
2017-07-03T03:44:09.843Z,14.14
2017-07-03T03:45:09.441Z,14.18
2017-07-03T03:46:09.798Z,14.2
2017-07-03T03:47:09.699Z,14.32
2017-07-03T03:48:09.733Z,14.18
2017-07-03T03:49:09.765Z,14.17
2017-07-03T03:50:09.033Z,14.18
2017-07-03T03:51:09.321Z,14.17
2017-07-03T03:52:09.293Z,14.33
2017-07-03T03:53:09.595Z,14.22
2017-07-03T03:54:09.594Z,14.15
2017-07-03T03:55:09.250Z,14.07
2017-07-03T03:56:08.922Z,13.85
2017-07-03T03:57:09.202Z,13.93
2017-07-03T03:58:09.562Z,13.95
2017-07-03T03:59:09.472Z,14.1
2017-07-03T04:00:09.453Z,14.05
2017-07-03T04:01:09.542Z,13.95
2017-07-03T04:02:09.125Z,13.96
2017-07-03T04:03:08.804Z,14.03
2017-07-03T04:04:08.768Z,13.78
2017-07-03T04:05:09.055Z,13.88
2017-07-03T04:06:09.343Z,13.97
2017-07-03T04:07:09.378Z,13.97
2017-07-03T04:08:09.311Z,13.96
2017-07-03T04:09:09.286Z,13.99
2017-07-03T04:10:09.293Z,14.08
2017-07-03T04:11:09.362Z,13.9
2017-07-03T04:12:08.922Z,13.8
2017-07-03T04:13:08.912Z,13.72
2017-07-03T04:14:09.200Z,13.84
2017-07-03T04:15:09.232Z,13.75
2017-07-03T04:16:09.162Z,13.9
2017-07-03T04:17:08.836Z,13.85
2017-07-03T04:18:08.829Z,13.82
2017-07-03T04:19:09.133Z,13.8
2017-07-03T04:20:08.473Z,13.93
2017-07-03T04:21:08.455Z,13.95
2017-07-03T04:22:09.051Z,13.95
2017-07-03T04:23:08.724Z,13.85
2017-07-03T04:24:08.707Z,13.95
2017-07-03T04:25:09.009Z,13.99
2017-07-03T04:26:08.679Z,14.15
2017-07-03T04:27:08.961Z,14.17
2017-07-03T04:28:08.932Z,14.25
2017-07-03T04:29:08.614Z,14.15
2017-07-03T04:30:08.900Z,14.14
2017-07-03T04:31:08.892Z,14.08
2017-07-03T04:32:08.551Z,14.22
2017-07-03T04:33:08.257Z,14.29
2017-07-03T04:34:08.513Z,14.13
2017-07-03T04:35:08.810Z,14.11
2017-07-03T04:36:08.798Z,14.11
2017-07-03T04:37:08.830Z,14.08
2017-07-03T04:38:08.453Z,14.1
2017-07-03T04:39:08.431Z,14.05
2017-07-03T04:40:08.717Z,14.11
2017-07-03T04:41:08.094Z,13.95
2017-07-03T04:42:08.692Z,14.03
2017-07-03T04:43:08.708Z,14.05
2017-07-03T04:44:08.341Z,14.11
2017-07-03T04:45:08.023Z,14.02
2017-07-03T04:46:08.312Z,14.14
2017-07-03T04:47:08.608Z,14.2
2017-07-03T04:48:08.270Z,14.2
2017-07-03T04:49:08.643Z,13.92
2017-07-03T04:50:08.542Z,14.02
2017-07-03T04:51:08.206Z,13.93
2017-07-03T04:52:08.502Z,13.97
2017-07-03T04:53:08.233Z,13.97
2017-07-03T04:54:08.473Z,13.84
2017-07-03T04:55:08.473Z,13.93
2017-07-03T04:56:08.134Z,13.95
2017-07-03T04:57:08.160Z,14.07
2017-07-03T04:58:07.777Z,13.99
2017-07-03T04:59:08.065Z,13.96
2017-07-03T05:00:08.052Z,13.97
2017-07-03T05:01:08.337Z,13.82
2017-07-03T05:02:08.319Z,13.71
2017-07-03T05:03:07.683Z,13.75
2017-07-03T05:04:08.023Z,13.81
2017-07-03T05:05:07.951Z,13.89
2017-07-03T05:06:08.253Z,14
2017-07-03T05:07:07.615Z,14.1
2017-07-03T05:08:08.224Z,14.11
2017-07-03T05:09:08.182Z,14.32
2017-07-03T05:10:08.243Z,14.22
2017-07-03T05:11:07.861Z,14.29
2017-07-03T05:12:07.533Z,14.36
2017-07-03T05:13:08.231Z,14.28
2017-07-03T05:14:07.789Z,14.21
2017-07-03T05:15:07.461Z,14.18
2017-07-03T05:16:07.739Z,14.26
2017-07-03T05:17:08.044Z,14.36
2017-07-03T05:18:07.511Z,14.47
2017-07-03T05:19:07.694Z,14.57
2017-07-03T05:20:07.672Z,14.55
2017-07-03T05:21:07.981Z,14.58
2017-07-03T05:22:07.657Z,14.42
2017-07-03T05:23:07.644Z,14.46
2017-07-03T05:24:07.974Z,14.62
2017-07-03T05:25:07.593Z,14.62
2017-07-03T05:26:07.580Z,14.73
2017-07-03T05:27:07.865Z,14.62
2017-07-03T05:28:07.546Z,14.69
2017-07-03T05:29:07.821Z,14.73
2017-07-03T05:30:07.803Z,14.8
2017-07-03T05:31:07.794Z,14.73
2017-07-03T05:32:07.148Z,14.7
2017-07-03T05:33:07.441Z,14.8
2017-07-03T05:34:07.742Z,14.7
2017-07-03T05:35:07.094Z,14.82
2017-07-03T05:36:07.392Z,14.91
2017-07-03T05:37:07.373Z,15
2017-07-03T05:38:07.351Z,14.8
2017-07-03T05:39:07.716Z,14.66
2017-07-03T05:40:07.319Z,14.82
2017-07-03T05:41:07.301Z,14.91
2017-07-03T05:42:07.282Z,14.89
2017-07-03T05:43:07.582Z,14.91
2017-07-03T05:44:07.245Z,14.92
2017-07-03T05:45:07.226Z,14.89
2017-07-03T05:46:07.523Z,14.95
2017-07-03T05:47:07.551Z,14.96
2017-07-03T05:48:07.175Z,15.04
2017-07-03T05:49:07.473Z,15.04
2017-07-03T05:50:07.450Z,15.13
2017-07-03T05:51:07.428Z,15.16
2017-07-03T05:52:07.403Z,15.12
2017-07-03T05:53:07.077Z,15.04
2017-07-03T05:54:07.066Z,15.16
2017-07-03T05:55:07.046Z,15.07
2017-07-03T05:56:07.032Z,15.14
2017-07-03T05:57:07.312Z,15.22
2017-07-03T05:58:06.998Z,15.25
2017-07-03T05:59:06.992Z,15.28
2017-07-03T06:00:07.261Z,15.31
2017-07-03T06:01:07.257Z,15.35
2017-07-03T06:02:07.453Z,15.31
2017-07-03T06:03:07.224Z,15.39
2017-07-03T06:04:07.207Z,15.42
2017-07-03T06:05:06.860Z,15.44
2017-07-03T06:06:07.181Z,15.5
2017-07-03T06:07:06.838Z,15.46
2017-07-03T06:08:07.136Z,15.43
2017-07-03T06:09:07.104Z,15.54
2017-07-03T06:10:06.779Z,15.44
2017-07-03T06:11:07.071Z,15.44
2017-07-03T06:12:06.739Z,15.44
2017-07-03T06:13:06.740Z,15.54
2017-07-03T06:14:07.019Z,15.46
2017-07-03T06:15:06.991Z,15.5
2017-07-03T06:16:06.994Z,15.54
2017-07-03T06:17:06.652Z,15.6
2017-07-03T06:18:06.950Z,15.77
2017-07-03T06:19:06.311Z,15.57
2017-07-03T06:20:06.606Z,15.57
2017-07-03T06:21:06.890Z,15.62
2017-07-03T06:22:06.883Z,15.72
2017-07-03T06:23:06.865Z,15.83
2017-07-03T06:24:06.852Z,15.79
2017-07-03T06:25:06.819Z,15.8
2017-07-03T06:26:06.801Z,15.9
2017-07-03T06:27:06.499Z,16.02
2017-07-03T06:28:06.789Z,16.07
2017-07-03T06:29:06.770Z,16.17
2017-07-03T06:30:06.740Z,16.27
2017-07-03T06:31:06.740Z,16.34
2017-07-03T06:32:06.703Z,16.28
2017-07-03T06:33:06.686Z,16.31
2017-07-03T06:34:06.665Z,16.26
2017-07-03T06:35:06.660Z,16.31
2017-07-03T06:36:06.027Z,16.27
2017-07-03T06:37:06.339Z,16.32
2017-07-03T06:38:06.595Z,16.43
2017-07-03T06:39:06.270Z,16.43
2017-07-03T06:40:06.559Z,16.5
2017-07-03T06:41:06.548Z,16.61
2017-07-03T06:42:06.536Z,16.74
2017-07-03T06:43:06.518Z,16.72
2017-07-03T06:44:06.510Z,16.71
2017-07-03T06:45:05.873Z,16.69
2017-07-03T06:46:06.268Z,16.72
2017-07-03T06:47:06.449Z,16.82
2017-07-03T06:48:06.241Z,16.69
2017-07-03T06:49:06.115Z,16.74
2017-07-03T06:50:06.109Z,16.68
2017-07-03T06:51:06.089Z,16.63
2017-07-03T06:52:06.361Z,16.69
2017-07-03T06:53:06.360Z,16.74
2017-07-03T06:54:06.341Z,16.76
2017-07-03T06:55:06.008Z,16.83
2017-07-03T06:56:06.299Z,16.93
2017-07-03T06:57:05.977Z,16.85
2017-07-03T06:58:06.265Z,16.83
2017-07-03T06:59:06.035Z,16.91
2017-07-03T07:00:06.053Z,17.03
2017-07-03T07:01:05.608Z,17.01
2017-07-03T07:02:05.904Z,16.91
2017-07-03T07:03:06.190Z,16.94
2017-07-03T07:04:06.158Z,17.03
2017-07-03T07:05:05.839Z,17.08
2017-07-03T07:06:06.141Z,17.12
2017-07-03T07:07:06.122Z,17.12
2017-07-03T07:08:05.497Z,17.08
2017-07-03T07:09:06.075Z,17.14
2017-07-03T07:10:06.080Z,17.12
2017-07-03T07:11:05.838Z,17.22
2017-07-03T07:12:06.082Z,17.3
2017-07-03T07:13:05.751Z,17.24
2017-07-03T07:14:06.020Z,17.24
2017-07-03T07:15:05.987Z,17.33
2017-07-03T07:16:05.668Z,17.44
2017-07-03T07:17:05.948Z,17.45
2017-07-03T07:18:05.941Z,17.45
2017-07-03T07:19:05.649Z,17.44
2017-07-03T07:20:05.928Z,17.46
2017-07-03T07:21:05.910Z,17.44
2017-07-03T07:22:05.568Z,17.56
2017-07-03T07:23:05.552Z,17.56
2017-07-03T07:24:05.543Z,17.62
2017-07-03T07:25:05.530Z,17.65
2017-07-03T07:26:05.520Z,17.67
2017-07-03T07:27:05.545Z,17.85
2017-07-03T07:28:05.779Z,17.87
2017-07-03T07:29:05.760Z,17.83
2017-07-03T07:30:05.760Z,17.75
2017-07-03T07:31:05.858Z,17.62
2017-07-03T07:32:05.728Z,17.52
2017-07-03T07:33:05.710Z,17.58
2017-07-03T07:34:05.376Z,17.6
2017-07-03T07:35:05.401Z,17.78
2017-07-03T07:36:05.055Z,17.96
2017-07-03T07:37:05.340Z,18.01
2017-07-03T07:38:05.319Z,18.1
2017-07-03T07:39:05.609Z,18.15
2017-07-03T07:40:06.617Z,18.3
2017-07-03T07:41:05.620Z,18.26
2017-07-03T07:42:05.282Z,18.27
2017-07-03T07:43:05.562Z,18.38
2017-07-03T07:44:05.226Z,18.4
2017-07-03T07:45:04.906Z,18.47
2017-07-03T07:46:05.499Z,18.48
2017-07-03T07:47:05.192Z,18.52
2017-07-03T07:48:05.486Z,18.56
2017-07-03T07:49:05.450Z,18.65
2017-07-03T07:50:05.131Z,18.66
2017-07-03T07:51:04.831Z,18.7
2017-07-03T07:52:05.127Z,18.66
2017-07-03T07:53:05.401Z,18.48
2017-07-03T07:54:05.115Z,18.56
2017-07-03T07:55:05.050Z,18.75
2017-07-03T07:56:05.357Z,18.78
2017-07-03T07:57:05.050Z,18.9
2017-07-03T07:58:05.029Z,18.93
2017-07-03T07:59:05.305Z,18.95
2017-07-03T08:00:05.312Z,18.78
2017-07-03T08:01:04.983Z,18.85
2017-07-03T08:02:05.277Z,19
2017-07-03T08:03:04.641Z,19
2017-07-03T08:04:05.281Z,19.11
2017-07-03T08:05:05.225Z,19.22
2017-07-03T08:06:04.911Z,19.4
2017-07-03T08:07:04.911Z,19.53
2017-07-03T08:08:04.869Z,19.69
2017-07-03T08:09:04.855Z,19.66
2017-07-03T08:10:05.139Z,19.61
2017-07-03T08:11:04.843Z,19.56
2017-07-03T08:12:05.172Z,19.63
2017-07-03T08:13:05.110Z,19.69
2017-07-03T08:14:05.133Z,19.77
2017-07-03T08:15:05.079Z,19.85
2017-07-03T08:16:05.060Z,19.77
2017-07-03T08:17:04.752Z,19.66
2017-07-03T08:18:04.739Z,19.78
2017-07-03T08:19:05.026Z,19.8
2017-07-03T08:20:05.010Z,19.95
2017-07-03T08:21:04.695Z,19.77
2017-07-03T08:22:04.993Z,19.71
2017-07-03T08:23:04.670Z,19.56
2017-07-03T08:24:04.966Z,19.71
2017-07-03T08:25:04.951Z,19.88
2017-07-03T08:26:04.935Z,19.89
2017-07-03T08:27:04.606Z,19.95
2017-07-03T08:28:04.907Z,19.95
2017-07-03T08:29:04.609Z,20.04
2017-07-03T08:30:04.881Z,20.06
2017-07-03T08:31:04.862Z,20.16
2017-07-03T08:32:04.850Z,20.2
2017-07-03T08:33:04.861Z,20.35
2017-07-03T08:34:04.825Z,20.6
2017-07-03T08:35:04.500Z,20.88
2017-07-03T08:36:04.780Z,21.11
2017-07-03T08:37:04.771Z,20.91
2017-07-03T08:38:04.763Z,20.97
2017-07-03T08:39:04.450Z,21.11
2017-07-03T08:40:04.418Z,21.21
2017-07-03T08:41:04.442Z,21.29
2017-07-03T08:42:04.406Z,21.24
2017-07-03T08:43:04.690Z,21.34
2017-07-03T08:44:04.689Z,21.24
2017-07-03T08:45:04.387Z,21.33
2017-07-03T08:46:04.660Z,21.11
2017-07-03T08:47:04.647Z,21.18
2017-07-03T08:48:04.351Z,21.31
2017-07-03T08:49:04.080Z,21.44
2017-07-03T08:50:04.623Z,21.66
2017-07-03T08:51:04.050Z,21.71
2017-07-03T08:52:04.632Z,21.88
2017-07-03T08:53:03.991Z,22.1
2017-07-03T08:54:04.561Z,22.29
2017-07-03T08:55:04.538Z,22.4
2017-07-03T08:56:04.531Z,22.4
2017-07-03T08:57:04.524Z,22.47
2017-07-03T08:58:04.529Z,22.14
2017-07-03T08:59:04.503Z,21.95
2017-07-03T09:00:04.481Z,22.1
2017-07-03T09:01:04.169Z,21.8
2017-07-03T09:02:04.212Z,21.49
2017-07-03T09:03:04.531Z,21.29
2017-07-03T09:04:04.449Z,21.46
2017-07-03T09:05:04.528Z,21.5
2017-07-03T09:06:04.099Z,21.24
2017-07-03T09:07:04.419Z,21.58
2017-07-03T09:08:04.089Z,21.44
2017-07-03T09:09:04.207Z,21.74
2017-07-03T09:10:04.375Z,21.97
2017-07-03T09:11:04.363Z,22.1
2017-07-03T09:12:04.469Z,22.39
2017-07-03T09:13:04.336Z,22.67
2017-07-03T09:14:04.011Z,22.87
2017-07-03T09:15:04.292Z,23.02
2017-07-03T09:16:04.303Z,22.97
2017-07-03T09:17:03.981Z,22.57
2017-07-03T09:18:04.266Z,22.4
2017-07-03T09:19:04.315Z,22.29
2017-07-03T09:20:04.358Z,22.4
2017-07-03T09:21:03.928Z,22.59
2017-07-03T09:22:03.963Z,22.65
2017-07-03T09:23:03.907Z,22.77
2017-07-03T09:24:04.256Z,22.66
2017-07-03T09:25:03.898Z,22.92
2017-07-03T09:26:04.180Z,23.13
2017-07-03T09:27:03.877Z,23.04
2017-07-03T09:28:03.854Z,23.06
2017-07-03T09:29:04.217Z,23.44
2017-07-03T09:30:03.841Z,23.85
2017-07-03T09:31:04.123Z,23.97
2017-07-03T09:32:03.814Z,24.12
2017-07-03T09:33:03.817Z,23.65
2017-07-03T09:34:04.109Z,23.55
2017-07-03T09:35:03.791Z,23.67
2017-07-03T09:36:03.768Z,23.38
2017-07-03T09:37:03.454Z,23.57
2017-07-03T09:38:03.762Z,23.66
2017-07-03T09:39:03.748Z,23.91
2017-07-03T09:40:04.068Z,23.85
2017-07-03T09:41:03.427Z,23.81
2017-07-03T09:42:03.737Z,23.84
2017-07-03T09:43:03.718Z,23.87
2017-07-03T09:44:04.007Z,23.96
2017-07-03T09:45:03.920Z,23.8
2017-07-03T09:46:03.687Z,23.72
2017-07-03T09:47:03.682Z,23.67
2017-07-03T09:48:03.734Z,23.27
2017-07-03T09:49:04.600Z,23.55
2017-07-03T09:50:03.346Z,23.54
2017-07-03T09:51:03.959Z,23.78
2017-07-03T09:52:03.937Z,23.82
2017-07-03T09:53:03.640Z,23.96
2017-07-03T09:54:03.632Z,24.1
2017-07-03T09:55:03.628Z,24.52
2017-07-03T09:56:03.609Z,24.7
2017-07-03T09:57:03.655Z,24.47
2017-07-03T09:58:03.611Z,24.22
2017-07-03T09:59:03.997Z,24.24
2017-07-03T10:00:03.589Z,24.29
2017-07-03T10:01:03.597Z,24.59
2017-07-03T10:02:03.899Z,24.55
2017-07-03T10:03:03.880Z,23.78
2017-07-03T10:04:03.918Z,23.96
2017-07-03T10:05:03.609Z,23.73
2017-07-03T10:06:03.872Z,23.96
2017-07-03T10:07:03.548Z,24.37
2017-07-03T10:08:03.533Z,24.61
2017-07-03T10:09:03.538Z,24.14
2017-07-03T10:10:03.880Z,24.33
2017-07-03T10:11:03.519Z,24.29
2017-07-03T10:12:03.199Z,24.65
2017-07-03T10:13:03.810Z,25.02
2017-07-03T10:14:03.803Z,25.32
2017-07-03T10:15:03.791Z,24.95
2017-07-03T10:16:03.839Z,24.62
2017-07-03T10:17:03.775Z,24.85
2017-07-03T10:18:03.789Z,24.8
2017-07-03T10:19:03.452Z,24.49
2017-07-03T10:20:03.448Z,24.71
2017-07-03T10:21:03.740Z,24.59
2017-07-03T10:22:03.751Z,24.89
2017-07-03T10:23:03.434Z,25.26
2017-07-03T10:24:03.728Z,25.59
2017-07-03T10:25:03.420Z,25.3
2017-07-03T10:26:03.725Z,25.26
2017-07-03T10:27:03.717Z,25.27
2017-07-03T10:28:03.689Z,25.37
2017-07-03T10:29:03.688Z,25.33
2017-07-03T10:30:03.693Z,25.26
2017-07-03T10:31:03.387Z,25.22
2017-07-03T10:32:03.376Z,25.34
2017-07-03T10:33:03.056Z,25.44
2017-07-03T10:34:03.661Z,25.17
2017-07-03T10:35:03.338Z,25.05
2017-07-03T10:36:03.660Z,24.99
2017-07-03T10:37:03.349Z,25.03
2017-07-03T10:38:03.308Z,24.8
2017-07-03T10:39:03.620Z,24.7
2017-07-03T10:40:03.291Z,25.17
2017-07-03T10:41:03.650Z,25.39
2017-07-03T10:42:03.596Z,25.7
2017-07-03T10:43:02.983Z,25.7
2017-07-03T10:44:03.587Z,25.76
2017-07-03T10:45:03.581Z,25.71
2017-07-03T10:46:02.956Z,25.52
2017-07-03T10:47:03.569Z,25.1
2017-07-03T10:48:03.252Z,24.8
2017-07-03T10:49:03.540Z,24.49
2017-07-03T10:50:03.519Z,24.37
2017-07-03T10:51:03.508Z,24.15
2017-07-03T10:52:03.503Z,24.66
2017-07-03T10:53:03.499Z,24.61
2017-07-03T10:54:03.500Z,25.05
2017-07-03T10:55:03.184Z,25.17
2017-07-03T10:56:03.727Z,25.08
2017-07-03T10:57:03.150Z,25.15
2017-07-03T10:58:03.148Z,25.49
2017-07-03T10:59:03.470Z,25.66
2017-07-03T11:00:03.677Z,25.67
2017-07-03T11:01:03.429Z,25.63
2017-07-03T11:02:03.108Z,25.91
2017-07-03T11:03:03.410Z,25.67
2017-07-03T11:04:03.100Z,25.81
2017-07-03T11:05:03.087Z,25.69
2017-07-03T11:06:03.379Z,25.67
2017-07-03T11:07:03.100Z,25.7
2017-07-03T11:08:03.053Z,25.76
2017-07-03T11:09:03.050Z,26.15
2017-07-03T11:10:03.339Z,26.29
2017-07-03T11:11:03.040Z,26.01
2017-07-03T11:12:03.029Z,25.64
2017-07-03T11:13:03.324Z,25.52
2017-07-03T11:14:03.317Z,25.55
2017-07-03T11:15:03.297Z,25.79
2017-07-03T11:16:02.981Z,25.91
2017-07-03T11:17:02.974Z,25.95
2017-07-03T11:18:02.959Z,25.81
2017-07-03T11:19:02.948Z,25.81
2017-07-03T11:20:03.241Z,25.77
2017-07-03T11:21:03.227Z,25.82
2017-07-03T11:22:02.620Z,25.39
2017-07-03T11:23:03.218Z,25.39
2017-07-03T11:24:02.901Z,25.39
2017-07-03T11:25:03.148Z,25.54
2017-07-03T11:26:02.592Z,25.67
2017-07-03T11:27:02.873Z,26
2017-07-03T11:28:03.250Z,26.33
2017-07-03T11:29:02.849Z,26.63
2017-07-03T11:30:03.240Z,26.74
2017-07-03T11:31:03.149Z,26.79
2017-07-03T11:32:02.919Z,26.57
2017-07-03T11:33:02.876Z,26.71
2017-07-03T11:34:03.127Z,26.49
2017-07-03T11:35:02.801Z,25.92
2017-07-03T11:36:02.820Z,25.86
2017-07-03T11:37:03.099Z,25.59
2017-07-03T11:38:02.827Z,25.91
2017-07-03T11:39:02.767Z,25.94
2017-07-03T11:40:02.808Z,25.95
2017-07-03T11:41:03.050Z,26.3
2017-07-03T11:42:03.038Z,26.42
2017-07-03T11:43:03.037Z,26.51
2017-07-03T11:44:02.761Z,26.57
2017-07-03T11:45:02.710Z,26.69
2017-07-03T11:46:03.010Z,26.76
2017-07-03T11:47:02.696Z,26.79
2017-07-03T11:48:02.681Z,26.79
2017-07-03T11:49:02.987Z,26.91
2017-07-03T11:50:02.969Z,26.7
2017-07-03T11:51:02.641Z,26.27
2017-07-03T11:52:02.650Z,25.91
2017-07-03T11:53:02.642Z,26.19
2017-07-03T11:54:02.641Z,26.45
2017-07-03T11:55:02.732Z,26.63
2017-07-03T11:56:02.907Z,26.56
2017-07-03T11:57:02.618Z,26.27
2017-07-03T11:58:02.887Z,26.17
2017-07-03T11:59:02.595Z,26.26
2017-07-03T12:00:02.867Z,26
2017-07-03T12:01:02.311Z,25.7
2017-07-03T12:02:02.596Z,25.79
2017-07-03T12:03:02.547Z,25.88
2017-07-03T12:04:02.544Z,26.19
2017-07-03T12:05:02.539Z,26.45
2017-07-03T12:06:02.829Z,26.85
2017-07-03T12:07:02.810Z,26.6
2017-07-03T12:08:02.820Z,26.41
2017-07-03T12:09:02.802Z,26.6
2017-07-03T12:10:02.804Z,26.71
2017-07-03T12:11:02.526Z,26.84
2017-07-03T12:12:02.471Z,26.98
2017-07-03T12:13:02.457Z,26.79
2017-07-03T12:14:02.508Z,26.81
2017-07-03T12:15:02.808Z,26.47
2017-07-03T12:16:02.759Z,26.06
2017-07-03T12:17:02.716Z,26.17
2017-07-03T12:18:02.780Z,26.32
2017-07-03T12:19:02.479Z,26.34
2017-07-03T12:20:02.758Z,26.56
2017-07-03T12:21:02.426Z,26.75
2017-07-03T12:22:02.708Z,26.88
2017-07-03T12:23:02.671Z,27
2017-07-03T12:24:02.698Z,27.06
2017-07-03T12:25:02.660Z,27.16
2017-07-03T12:26:02.388Z,27.25
2017-07-03T12:27:02.643Z,26.59
2017-07-03T12:28:02.640Z,26.66
2017-07-03T12:29:02.615Z,26.75
2017-07-03T12:30:02.013Z,26.64
2017-07-03T12:31:02.602Z,26.75
2017-07-03T12:32:02.278Z,26.59
2017-07-03T12:33:02.589Z,26.63
2017-07-03T12:34:02.277Z,26.69
2017-07-03T12:35:02.571Z,27.06
2017-07-03T12:36:02.563Z,27.23
2017-07-03T12:37:02.231Z,27.31
2017-07-03T12:38:02.532Z,26.94
2017-07-03T12:39:02.531Z,27.03
2017-07-03T12:40:02.209Z,27.26
2017-07-03T12:41:02.514Z,27.26
2017-07-03T12:42:02.202Z,27.3
2017-07-03T12:43:02.503Z,27.09
2017-07-03T12:44:02.487Z,27.01
2017-07-03T12:45:02.498Z,26.69
2017-07-03T12:46:02.172Z,26.75
2017-07-03T12:47:02.461Z,27.09
2017-07-03T12:48:02.145Z,26.32
2017-07-03T12:49:02.136Z,26.2
2017-07-03T12:50:02.191Z,26.38
2017-07-03T12:51:02.430Z,26.29
2017-07-03T12:52:02.641Z,25.82
2017-07-03T12:53:02.410Z,25.7
2017-07-03T12:54:02.407Z,25.67
2017-07-03T12:55:01.778Z,25.45
2017-07-03T12:56:02.379Z,25.39